Time;durP1;ratioP1;P1;durP2;ratioP2;P2;SDS_P1;SDS_P2;PMS_P1;PMS_P2;Temp;Humidity;BMP_temperature;BMP_pressure;BME280_temperature;BME280_humidity;BME280_pressure;Samples;Min_cycle;Max_cycle;Signal;HPM_P1;HPM_P2
2023/06/17 00:02:02;;;;;;;10.23;5.10;;;21.20;98.30;;;;;;7288780;19;20189;-81
2023/06/17 00:04:28;;;;;;;8.70;4.90;;;21.20;99.40;;;;;;7288363;19;20204;-79
2023/06/17 00:06:54;;;;;;;9.43;5.00;;;21.00;99.90;;;;;;7310845;19;20522;-80
2023/06/17 00:09:20;;;;;;;12.53;5.43;;;20.90;99.90;;;;;;7288512;19;20185;-81
2023/06/17 00:11:47;;;;;;;11.17;6.03;;;20.80;99.90;;;;;;7288402;19;20189;-81
2023/06/17 00:14:14;;;;;;;8.40;5.67;;;20.70;99.90;;;;;;7288853;19;20285;-81
2023/06/17 00:16:43;;;;;;;8.80;5.00;;;20.80;99.90;;;;;;7288209;19;20204;-80
2023/06/17 00:19:15;;;;;;;10.37;5.10;;;20.60;99.90;;;;;;7288390;19;20739;-81
2023/06/17 00:21:42;;;;;;;9.93;5.30;;;20.60;99.90;;;;;;7288784;19;20203;-81
2023/06/17 00:24:08;;;;;;;9.03;5.33;;;20.40;99.90;;;;;;7287960;19;20192;-82
2023/06/17 00:26:34;;;;;;;10.57;4.73;;;20.40;99.90;;;;;;7289925;19;20276;-81
2023/06/17 00:29:06;;;;;;;9.57;5.50;;;20.20;99.90;;;;;;7286794;19;20177;-81
2023/06/17 00:31:32;;;;;;;8.93;5.17;;;20.30;99.90;;;;;;7288827;19;20193;-81
2023/06/17 00:33:57;;;;;;;10.93;5.23;;;20.20;99.90;;;;;;7287047;19;20537;-80
2023/06/17 00:36:23;;;;;;;11.03;5.13;;;20.10;99.90;;;;;;7308943;19;20645;-81
2023/06/17 00:38:50;;;;;;;9.50;5.33;;;20.10;99.90;;;;;;7287899;19;20207;-81
2023/06/17 00:41:16;;;;;;;10.17;5.10;;;20.20;99.90;;;;;;7286803;19;20194;-81
2023/06/17 00:43:43;;;;;;;8.47;5.10;;;20.20;99.90;;;;;;7288247;19;20197;-81
2023/06/17 00:46:13;;;;;;;12.03;5.13;;;20.20;99.90;;;;;;7287355;19;20193;-80
2023/06/17 00:48:38;;;;;;;10.43;5.13;;;20.10;99.90;;;;;;7285929;19;20192;-80
2023/06/17 00:51:04;;;;;;;8.00;5.23;;;20.00;99.90;;;;;;7284327;19;20245;-80
2023/06/17 00:53:31;;;;;;;9.30;5.37;;;20.00;99.90;;;;;;7285905;19;20536;-80
2023/06/17 00:55:58;;;;;;;9.60;6.37;;;19.90;99.90;;;;;;7289016;19;20196;-80
2023/06/17 00:58:27;;;;;;;11.70;6.37;;;19.70;99.90;;;;;;7307311;19;20553;-80
2023/06/17 01:00:53;;;;;;;11.17;6.17;;;19.50;99.90;;;;;;7284615;19;20665;-79
2023/06/17 01:03:18;;;;;;;10.47;6.03;;;19.50;99.90;;;;;;7282062;19;20201;-81
2023/06/17 01:05:47;;;;;;;9.93;5.40;;;19.50;99.90;;;;;;7283934;19;20193;-80
2023/06/17 01:08:16;;;;;;;8.70;5.27;;;19.50;99.90;;;;;;7286727;19;20289;-81
2023/06/17 01:10:56;;;;;;;9.90;5.10;;;19.50;99.90;;;;;;7285731;19;20205;-80
2023/06/17 01:13:23;;;;;;;9.57;5.10;;;19.60;99.90;;;;;;7286988;19;20191;-80
2023/06/17 01:15:50;;;;;;;8.80;4.37;;;19.60;99.90;;;;;;7286750;19;20180;-82
2023/06/17 01:18:17;;;;;;;7.60;4.37;;;19.60;99.90;;;;;;7286402;19;20214;-79
2023/06/17 01:20:45;;;;;;;7.53;4.50;;;19.60;99.90;;;;;;7288011;19;20192;-80
2023/06/17 01:23:12;;;;;;;8.50;4.40;;;19.70;99.90;;;;;;7285571;19;20212;-81
2023/06/17 01:25:37;;;;;;;9.57;4.67;;;19.80;99.90;;;;;;7286494;19;20180;-79
2023/06/17 01:28:24;;;;;;;8.37;5.00;;;19.80;99.90;;;;;;7284761;19;20192;-81
2023/06/17 01:30:54;;;;;;;10.17;5.47;;;19.50;99.90;;;;;;7284847;19;20228;-81
2023/06/17 01:33:21;;;;;;;10.07;6.00;;;19.30;99.90;;;;;;7287789;19;20192;-80
2023/06/17 01:36:20;;;;;;;12.43;5.70;;;19.10;99.90;;;;;;7287209;19;20590;-80
2023/06/17 01:38:59;;;;;;;11.50;5.50;;;19.00;99.90;;;;;;7184397;19;2004853;-80
2023/06/17 01:41:37;;;;;;;10.60;4.87;;;19.00;99.90;;;;;;7283424;19;20651;-80
2023/06/17 01:44:04;;;;;;;13.00;5.77;;;19.00;99.90;;;;;;7284481;19;20596;-81
2023/06/17 01:46:30;;;;;;;10.77;5.03;;;19.10;99.90;;;;;;7286474;19;20191;-80
2023/06/17 01:48:57;;;;;;;12.40;5.57;;;19.10;99.90;;;;;;7291712;19;20192;-79
2023/06/17 01:51:23;;;;;;;10.43;5.23;;;19.20;99.90;;;;;;7307271;19;20184;-80
2023/06/17 01:53:48;;;;;;;9.83;5.20;;;19.30;99.90;;;;;;7284675;19;20188;-80
2023/06/17 01:56:14;;;;;;;13.00;5.00;;;19.20;99.90;;;;;;7285060;19;20648;-80
2023/06/17 01:58:40;;;;;;;8.73;4.97;;;19.10;99.90;;;;;;7285462;19;20663;-80
2023/06/17 02:01:06;;;;;;;12.47;5.40;;;19.00;99.90;;;;;;7284061;19;20201;-80
2023/06/17 02:03:32;;;;;;;12.10;5.53;;;18.70;99.90;;;;;;7285128;19;20192;-80
2023/06/17 02:05:58;;;;;;;8.87;5.50;;;18.60;99.90;;;;;;7285130;19;20301;-80
2023/06/17 02:08:23;;;;;;;10.87;5.80;;;18.50;99.90;;;;;;7307488;19;20184;-80
2023/06/17 02:10:50;;;;;;;8.83;5.07;;;18.40;99.90;;;;;;7285223;19;20213;-80
2023/06/17 02:13:16;;;;;;;10.30;5.33;;;18.40;99.90;;;;;;7284794;19;20190;-80
2023/06/17 02:15:42;;;;;;;11.70;5.43;;;18.40;99.90;;;;;;7283238;19;20189;-80
2023/06/17 02:18:12;;;;;;;9.20;5.10;;;18.50;99.90;;;;;;7284016;19;20224;-80
2023/06/17 02:20:38;;;;;;;8.80;5.33;;;18.40;99.90;;;;;;7285725;19;20200;-80
2023/06/17 02:23:04;;;;;;;8.80;5.40;;;18.40;99.90;;;;;;7283918;19;20942;-80
2023/06/17 02:25:30;;;;;;;9.90;5.43;;;18.40;99.90;;;;;;7284839;19;20199;-80
2023/06/17 02:27:58;;;;;;;8.97;5.30;;;18.30;99.90;;;;;;7284818;19;20222;-80
2023/06/17 02:30:24;;;;;;;11.87;5.80;;;18.30;99.90;;;;;;7306252;19;20198;-80
2023/06/17 02:32:50;;;;;;;9.43;5.50;;;18.20;99.90;;;;;;7283786;19;20973;-80
2023/06/17 02:35:16;;;;;;;10.67;5.13;;;18.10;99.90;;;;;;7284546;19;20194;-80
2023/06/17 02:37:43;;;;;;;10.53;5.37;;;18.00;99.90;;;;;;7285394;19;20192;-80
2023/06/17 02:40:10;;;;;;;8.77;5.20;;;18.00;99.90;;;;;;7284911;19;20201;-80
2023/06/17 02:42:36;;;;;;;10.57;5.43;;;18.00;99.90;;;;;;7283931;19;20211;-80
2023/06/17 02:45:03;;;;;;;9.77;5.07;;;18.00;99.90;;;;;;7284229;19;20192;-79
2023/06/17 02:47:28;;;;;;;12.37;5.30;;;18.10;99.90;;;;;;7283685;19;20192;-81
2023/06/17 02:49:54;;;;;;;8.97;5.53;;;18.20;99.90;;;;;;7305001;19;20190;-80
2023/06/17 02:52:21;;;;;;;9.67;4.67;;;18.00;99.90;;;;;;7284917;19;20722;-80
2023/06/17 02:54:47;;;;;;;10.70;5.10;;;18.00;99.90;;;;;;7282560;19;20196;-80
2023/06/17 02:57:18;;;;;;;9.03;5.20;;;18.00;99.90;;;;;;7283945;19;20187;-81
2023/06/17 02:59:44;;;;;;;10.40;5.67;;;18.00;99.90;;;;;;7284266;19;20196;-80
2023/06/17 03:02:10;;;;;;;8.80;5.43;;;18.00;99.90;;;;;;7281804;19;20197;-80
2023/06/17 03:04:36;;;;;;;9.27;4.83;;;18.00;99.90;;;;;;7284597;19;20641;-81
2023/06/17 03:07:04;;;;;;;14.60;5.67;;;18.00;99.90;;;;;;7284581;19;20211;-80
2023/06/17 03:09:30;;;;;;;11.57;5.37;;;17.90;99.90;;;;;;7281820;19;20185;-79
2023/06/17 03:12:02;;;;;;;10.70;5.47;;;17.90;99.90;;;;;;7283439;19;20195;-80
2023/06/17 03:14:29;;;;;;;9.77;5.10;;;17.90;99.90;;;;;;7283085;19;20192;-80
2023/06/17 03:16:58;;;;;;;10.97;5.37;;;17.90;99.90;;;;;;7288353;19;20184;-79
2023/06/17 03:19:25;;;;;;;12.03;5.37;;;17.90;99.90;;;;;;7300804;19;20210;-79
2023/06/17 03:21:52;;;;;;;10.40;5.23;;;18.00;99.90;;;;;;7305074;19;20184;-81
2023/06/17 03:24:21;;;;;;;9.90;5.10;;;18.00;99.90;;;;;;7284341;19;20217;-80
2023/06/17 03:26:47;;;;;;;10.40;5.63;;;18.00;99.90;;;;;;7282326;19;20196;-80
2023/06/17 03:29:13;;;;;;;10.30;5.47;;;18.00;99.90;;;;;;7280711;19;20193;-80
2023/06/17 03:31:40;;;;;;;8.90;5.47;;;18.00;99.90;;;;;;7282979;19;20273;-81
2023/06/17 03:34:07;;;;;;;10.73;5.63;;;18.00;99.90;;;;;;7281982;19;20198;-80
2023/06/17 03:36:34;;;;;;;12.83;5.50;;;18.10;99.90;;;;;;7282686;19;20180;-80
2023/06/17 03:38:59;;;;;;;10.67;5.27;;;18.00;99.90;;;;;;7283294;19;20978;-80
2023/06/17 03:41:29;;;;;;;14.50;5.50;;;18.10;99.90;;;;;;7281986;19;20195;-80
2023/06/17 03:43:55;;;;;;;8.30;4.70;;;18.10;99.90;;;;;;7289829;19;20940;-79
2023/06/17 03:46:21;;;;;;;10.63;5.27;;;18.10;99.90;;;;;;7305505;19;20547;-79
2023/06/17 03:48:47;;;;;;;8.03;4.77;;;17.90;99.90;;;;;;7282711;19;20191;-81
2023/06/17 03:51:13;;;;;;;13.27;5.40;;;17.80;99.90;;;;;;7281882;19;20251;-80
2023/06/17 03:53:40;;;;;;;9.37;5.17;;;17.80;99.90;;;;;;7282153;19;20185;-79
2023/06/17 03:56:06;;;;;;;12.27;5.50;;;17.80;99.90;;;;;;7281162;19;20190;-80
2023/06/17 03:58:32;;;;;;;10.60;5.33;;;17.80;99.90;;;;;;7283261;19;20203;-80
2023/06/17 04:00:58;;;;;;;11.87;5.43;;;18.00;99.90;;;;;;7282663;19;20193;-80
2023/06/17 04:03:25;;;;;;;12.17;5.40;;;18.10;99.90;;;;;;7303599;19;20196;-80
2023/06/17 04:05:51;;;;;;;12.17;6.10;;;18.20;99.90;;;;;;7282664;19;20185;-80
2023/06/17 04:08:18;;;;;;;11.20;5.30;;;18.30;99.90;;;;;;7281262;19;20207;-79
2023/06/17 04:10:47;;;;;;;10.27;5.47;;;18.40;99.90;;;;;;7281252;19;20203;-80
2023/06/17 04:13:14;;;;;;;10.37;5.83;;;18.50;99.90;;;;;;7281519;19;20196;-80
2023/06/17 04:15:40;;;;;;;9.13;5.30;;;18.50;99.90;;;;;;7281513;19;20209;-80
2023/06/17 04:18:06;;;;;;;10.60;5.10;;;18.40;99.90;;;;;;7278443;19;20287;-79
2023/06/17 04:20:34;;;;;;;13.20;5.50;;;18.40;99.90;;;;;;7277485;19;20780;-80
2023/06/17 04:23:01;;;;;;;10.63;5.60;;;18.50;99.90;;;;;;7280106;19;20196;-80
2023/06/17 04:25:27;;;;;;;11.77;6.20;;;18.60;99.90;;;;;;7281073;19;20193;-79
2023/06/17 04:27:56;;;;;;;10.50;5.70;;;18.70;99.90;;;;;;7295724;19;20735;-79
2023/06/17 04:30:25;;;;;;;11.60;5.20;;;18.90;99.90;;;;;;7309102;19;20215;-79
2023/06/17 04:32:54;;;;;;;11.77;5.53;;;19.40;99.90;;;;;;7288838;19;20184;-80
2023/06/17 04:35:20;;;;;;;11.77;5.23;;;20.00;99.90;;;;;;7289022;19;20621;-80
2023/06/17 04:37:53;;;;;;;11.20;5.27;;;20.50;99.90;;;;;;7289595;19;20660;-80
2023/06/17 04:40:20;;;;;;;11.33;5.30;;;20.70;99.90;;;;;;7287264;19;20225;-80
2023/06/17 04:42:47;;;;;;;10.77;5.37;;;20.80;99.90;;;;;;7287611;19;20189;-79
2023/06/17 04:45:13;;;;;;;10.50;5.53;;;20.70;99.90;;;;;;7288451;19;20196;-81
2023/06/17 04:47:39;;;;;;;10.93;5.23;;;20.70;99.90;;;;;;7288277;19;20193;-80
2023/06/17 04:50:05;;;;;;;9.13;4.90;;;20.60;99.90;;;;;;7285422;19;20195;-80
2023/06/17 04:52:32;;;;;;;9.67;5.20;;;20.30;99.90;;;;;;7287513;19;20200;-79
2023/06/17 04:55:00;;;;;;;9.40;5.23;;;20.10;99.90;;;;;;7286870;19;20192;-79
2023/06/17 04:57:26;;;;;;;12.63;5.00;;;20.00;99.90;;;;;;7289776;19;20860;-79
2023/06/17 04:59:54;;;;;;;12.23;5.00;;;20.50;99.90;;;;;;7308188;19;20196;-80
2023/06/17 05:02:20;;;;;;;12.03;5.30;;;21.50;99.90;;;;;;7286905;19;20640;-80
2023/06/17 05:04:46;;;;;;;13.97;5.40;;;21.90;99.90;;;;;;7286202;19;20200;-80
2023/06/17 05:07:12;;;;;;;10.80;5.63;;;21.90;99.90;;;;;;7286515;19;20559;-80
2023/06/17 05:09:39;;;;;;;12.00;5.60;;;22.30;99.90;;;;;;7286812;19;20185;-80
2023/06/17 05:12:06;;;;;;;11.53;5.17;;;22.30;99.90;;;;;;7286220;19;20656;-80
2023/06/17 05:14:32;;;;;;;12.43;5.40;;;22.50;99.90;;;;;;7285582;19;20195;-80
2023/06/17 05:16:58;;;;;;;10.33;4.80;;;22.60;99.90;;;;;;7286415;19;20189;-79
2023/06/17 05:19:24;;;;;;;15.20;5.87;;;22.60;99.90;;;;;;7305370;19;20550;-79
2023/06/17 05:21:50;;;;;;;9.73;5.20;;;22.70;99.90;;;;;;7300286;19;20184;-80
2023/06/17 05:24:20;;;;;;;9.47;5.10;;;22.80;99.90;;;;;;7287794;19;20574;-80
2023/06/17 05:26:46;;;;;;;13.03;5.83;;;22.80;99.90;;;;;;7286339;19;20189;-80
2023/06/17 05:29:12;;;;;;;12.00;4.80;;;23.30;99.90;;;;;;7286495;19;20192;-80
2023/06/17 05:31:40;;;;;;;11.53;4.73;;;23.70;99.90;;;;;;7286353;19;20181;-78
2023/06/17 05:34:06;;;;;;;10.40;4.85;;;23.70;99.90;;;;;;7286160;19;20217;-80
2023/06/17 05:36:33;;;;;;;9.52;4.82;;;23.70;99.90;;;;;;7286627;19;20193;-79
2023/06/17 05:38:59;;;;;;;11.07;4.93;;;24.10;99.90;;;;;;7286107;19;20248;-81
2023/06/17 05:41:25;;;;;;;10.55;5.22;;;24.20;99.90;;;;;;7294144;19;20744;-79
2023/06/17 05:43:52;;;;;;;10.60;5.15;;;24.20;99.90;;;;;;7307457;19;20197;-80
2023/06/17 05:46:18;;;;;;;12.27;5.80;;;24.10;99.90;;;;;;7285576;19;20185;-80
2023/06/17 05:48:44;;;;;;;12.77;5.70;;;24.90;99.90;;;;;;7285322;19;24920;-80
2023/06/17 05:51:10;;;;;;;13.73;5.85;;;26.20;99.90;;;;;;7284714;19;20193;-80
2023/06/17 05:53:36;;;;;;;10.27;5.30;;;27.40;99.90;;;;;;7284861;19;20193;-79
2023/06/17 05:56:02;;;;;;;10.18;5.10;;;28.50;99.90;;;;;;7285140;19;20199;-80
2023/06/17 05:58:27;;;;;;;8.82;5.10;;;29.40;97.50;;;;;;7286993;19;20189;-79
2023/06/17 06:00:59;;;;;;;8.38;4.93;;;29.80;94.60;;;;;;7284065;19;20193;-80
2023/06/17 06:03:25;;;;;;;10.32;5.03;;;30.50;93.50;;;;;;7293034;19;20260;-79
2023/06/17 06:05:51;;;;;;;11.98;5.90;;;31.00;90.40;;;;;;7307621;19;20212;-79
2023/06/17 06:08:18;;;;;;;10.18;5.28;;;31.50;84.20;;;;;;7283226;19;20570;-80
2023/06/17 06:10:46;;;;;;;11.43;5.30;;;31.80;83.00;;;;;;7284880;19;20210;-80
2023/06/17 06:13:11;;;;;;;9.75;5.07;;;32.00;80.20;;;;;;7283932;19;20181;-79
2023/06/17 06:15:38;;;;;;;10.75;5.22;;;32.50;80.30;;;;;;7285027;19;20208;-80
2023/06/17 06:18:05;;;;;;;14.77;5.65;;;32.40;77.40;;;;;;7284486;19;20188;-81
2023/06/17 06:20:32;;;;;;;11.80;5.57;;;31.10;76.80;;;;;;7281892;19;20193;-80
2023/06/17 06:22:58;;;;;;;12.52;5.60;;;30.10;80.10;;;;;;7282915;19;20296;-80
2023/06/17 06:25:25;;;;;;;13.85;5.95;;;29.40;83.20;;;;;;7283787;19;20200;-80
2023/06/17 06:27:51;;;;;;;34.63;11.68;;;29.40;82.60;;;;;;7306645;19;20181;-81
2023/06/17 06:30:19;;;;;;;12.27;6.00;;;30.10;84.70;;;;;;7283869;19;20279;-81
2023/06/17 06:32:48;;;;;;;12.82;6.13;;;30.20;80.30;;;;;;7280530;19;20196;-80
2023/06/17 06:35:16;;;;;;;11.93;6.28;;;30.50;80.50;;;;;;7281230;19;20196;-81
2023/06/17 06:37:42;;;;;;;32.97;12.30;;;30.70;80.00;;;;;;7284481;19;20204;-81
2023/06/17 06:40:09;;;;;;;15.77;7.25;;;30.70;80.30;;;;;;7282260;19;20223;-81
2023/06/17 06:42:37;;;;;;;22.05;9.02;;;30.80;79.20;;;;;;7284210;19;20199;-81
2023/06/17 06:45:14;;;;;;;20.75;8.68;;;30.80;79.00;;;;;;7284904;19;20185;-80
2023/06/17 06:47:40;;;;;;;13.65;5.75;;;30.80;78.80;;;;;;7284929;19;20215;-80
2023/06/17 06:50:07;;;;;;;9.20;5.85;;;30.40;77.20;;;;;;7281557;19;20589;-81
2023/06/17 06:52:32;;;;;;;12.18;5.97;;;30.70;77.60;;;;;;7293388;19;20193;-80
2023/06/17 06:54:58;;;;;;;14.35;5.78;;;31.00;76.40;;;;;;7307227;19;20285;-79
2023/06/17 06:57:24;;;;;;;9.57;5.60;;;31.10;77.90;;;;;;7283244;19;20187;-80
2023/06/17 06:59:50;;;;;;;15.25;6.03;;;31.00;76.20;;;;;;7282814;19;20193;-81
2023/06/17 07:02:16;;;;;;;11.93;6.30;;;31.40;76.70;;;;;;7284360;19;20292;-81
2023/06/17 07:04:43;;;;;;;10.27;5.47;;;31.60;75.50;;;;;;7282342;19;20214;-80
2023/06/17 07:07:09;;;;;;;11.00;6.13;;;31.60;76.80;;;;;;7283930;19;20229;-80
2023/06/17 07:09:39;;;;;;;10.43;6.05;;;32.00;74.40;;;;;;7282971;19;21039;-80
2023/06/17 07:12:06;;;;;;;30.00;9.45;;;32.20;73.80;;;;;;7283412;19;20200;-80
2023/06/17 07:14:35;;;;;;;13.80;6.18;;;32.30;73.70;;;;;;7283789;19;20189;-80
2023/06/17 07:17:01;;;;;;;23.90;8.23;;;32.60;72.40;;;;;;7304083;19;20181;-79
2023/06/17 07:19:27;;;;;;;15.55;5.93;;;33.50;72.50;;;;;;7284320;19;20202;-80
2023/06/17 07:21:54;;;;;;;16.80;6.93;;;34.60;70.60;;;;;;7284037;19;20260;-81
2023/06/17 07:24:20;;;;;;;11.40;5.55;;;34.70;67.80;;;;;;7282643;19;20193;-80
2023/06/17 07:26:47;;;;;;;11.65;5.53;;;35.20;66.40;;;;;;7282791;19;20189;-80
2023/06/17 07:29:13;;;;;;;10.90;6.25;;;35.90;64.10;;;;;;7281278;19;20256;-81
2023/06/17 07:31:39;;;;;;;9.07;5.18;;;36.40;62.60;;;;;;7284181;19;20192;-80
2023/06/17 07:34:05;;;;;;;9.95;5.47;;;36.10;62.80;;;;;;7281980;19;20200;-80
2023/06/17 07:36:30;;;;;;;10.23;5.40;;;36.30;61.20;;;;;;7302822;19;20195;-80
2023/06/17 07:38:57;;;;;;;11.00;5.70;;;37.10;59.70;;;;;;7281830;19;20205;-81
2023/06/17 07:41:24;;;;;;;46.22;14.98;;;37.90;59.80;;;;;;7282888;19;20306;-81
2023/06/17 07:43:50;;;;;;;28.48;9.02;;;38.10;59.00;;;;;;7282220;19;20189;-80
2023/06/17 07:46:16;;;;;;;10.27;5.20;;;38.30;58.10;;;;;;7277860;19;20636;-80
2023/06/17 07:48:43;;;;;;;24.90;8.85;;;37.40;56.60;;;;;;7281974;19;20320;-82
2023/06/17 07:51:09;;;;;;;8.55;5.10;;;37.50;57.90;;;;;;7283793;19;20207;-81
2023/06/17 07:53:35;;;;;;;12.35;5.32;;;38.20;57.20;;;;;;7281928;19;20286;-80
2023/06/17 07:56:01;;;;;;;18.98;6.43;;;39.20;55.40;;;;;;7304218;19;20315;-80
2023/06/17 07:58:27;;;;;;;11.45;5.40;;;39.80;54.90;;;;;;7282195;19;21122;-80
2023/06/17 08:00:52;;;;;;;10.18;5.85;;;39.30;53.80;;;;;;7281717;19;20205;-80
2023/06/17 08:03:18;;;;;;;9.30;5.30;;;38.90;52.90;;;;;;7280538;19;20208;-81
2023/06/17 08:05:44;;;;;;;10.43;5.47;;;39.10;54.20;;;;;;7289327;19;20192;-80
2023/06/17 08:08:09;;;;;;;10.98;5.65;;;39.40;53.60;;;;;;7288352;19;20193;-80
2023/06/17 08:10:35;;;;;;;9.55;5.22;;;39.70;52.60;;;;;;7286888;19;20184;-80
2023/06/17 08:13:01;;;;;;;9.73;5.05;;;39.40;53.70;;;;;;7310843;19;20192;-79
2023/06/17 08:15:27;;;;;;;14.40;5.30;;;39.70;52.80;;;;;;7290797;19;20189;-81
2023/06/17 08:17:53;;;;;;;12.18;5.57;;;40.60;52.70;;;;;;7287626;19;20810;-80
2023/06/17 08:20:20;;;;;;;13.57;6.00;;;41.10;51.20;;;;;;7290468;19;20256;-80
2023/06/17 08:22:45;;;;;;;9.93;4.90;;;42.30;50.60;;;;;;7290061;19;20616;-80
2023/06/17 08:25:11;;;;;;;8.80;4.80;;;42.30;47.90;;;;;;7288879;19;20192;-80
2023/06/17 08:27:42;;;;;;;8.05;4.80;;;42.50;48.10;;;;;;7289436;19;20289;-81
2023/06/17 08:30:08;;;;;;;11.48;4.93;;;43.10;47.50;;;;;;7288828;19;20299;-87
2023/06/17 08:32:34;;;;;;;8.55;4.90;;;43.40;48.00;;;;;;7288611;19;20188;-82
2023/06/17 08:35:05;;;;;;;11.63;4.70;;;43.30;46.60;;;;;;7309631;19;20188;-82
2023/06/17 08:37:34;;;;;;;33.92;10.10;;;42.50;46.70;;;;;;7284945;19;20218;-83
2023/06/17 08:40:00;;;;;;;10.77;5.68;;;42.40;47.40;;;;;;7310797;19;20185;-83
2023/06/17 08:42:27;;;;;;;20.70;7.90;;;41.10;48.60;;;;;;7288551;19;20194;-82
2023/06/17 08:44:56;;;;;;;9.82;4.30;;;41.00;50.00;;;;;;7287748;19;20193;-82
2023/06/17 08:47:22;;;;;;;10.82;5.22;;;42.80;47.50;;;;;;7289551;19;20194;-82
2023/06/17 08:49:49;;;;;;;8.45;5.05;;;43.80;45.30;;;;;;7285721;19;20276;-83
2023/06/17 08:52:15;;;;;;;10.25;5.10;;;44.40;44.50;;;;;;7289006;19;20596;-81
2023/06/17 08:54:41;;;;;;;11.32;4.85;;;43.50;44.00;;;;;;7286480;19;20261;-81
2023/06/17 08:57:11;;;;;;;11.82;4.70;;;42.70;45.20;;;;;;7288088;19;20188;-81
2023/06/17 08:59:37;;;;;;;8.75;4.68;;;43.20;45.50;;;;;;7287399;19;20249;-81
2023/06/17 09:02:03;;;;;;;11.27;5.10;;;41.70;45.60;;;;;;7293438;19;20664;-81
2023/06/17 09:04:30;;;;;;;10.73;4.75;;;40.80;46.60;;;;;;7309557;19;20192;-81
2023/06/17 09:06:56;;;;;;;7.65;4.75;;;40.00;47.00;;;;;;7287977;19;20571;-81
2023/06/17 09:09:21;;;;;;;10.98;5.60;;;39.50;47.70;;;;;;7287393;19;20285;-82
2023/06/17 09:11:52;;;;;;;9.18;4.90;;;39.70;47.90;;;;;;7287990;19;20196;-82
2023/06/17 09:14:19;;;;;;;11.48;5.00;;;40.60;47.50;;;;;;7287615;19;20192;-81
2023/06/17 09:16:45;;;;;;;8.07;5.00;;;40.90;47.80;;;;;;7282680;19;20195;-80
2023/06/17 09:19:14;;;;;;;13.23;5.70;;;40.30;46.80;;;;;;7288645;19;20185;-80
2023/06/17 09:21:40;;;;;;;11.38;5.18;;;39.90;47.00;;;;;;7286471;19;20284;-81
2023/06/17 09:24:08;;;;;;;13.48;5.40;;;39.70;47.90;;;;;;7286669;19;20218;-80
2023/06/17 09:26:42;;;;;;;7.22;4.38;;;40.10;46.80;;;;;;7287918;19;20196;-80
2023/06/17 09:29:13;;;;;;;14.45;6.10;;;40.70;46.80;;;;;;7287501;19;20207;-81
2023/06/17 09:31:50;;;;;;;21.83;8.00;;;40.50;47.00;;;;;;7287662;19;20548;-81
2023/06/17 09:34:16;;;;;;;21.20;7.07;;;39.70;47.60;;;;;;7286378;19;20220;-81
2023/06/17 09:36:42;;;;;;;38.95;9.63;;;39.40;48.10;;;;;;7287249;19;20203;-80
2023/06/17 09:39:14;;;;;;;10.52;5.63;;;38.90;48.60;;;;;;7284598;19;20196;-80
2023/06/17 09:41:41;;;;;;;10.60;5.13;;;38.10;48.20;;;;;;7286363;19;20196;-80
2023/06/17 09:44:07;;;;;;;9.23;4.97;;;38.30;48.10;;;;;;7286236;19;20184;-80
2023/06/17 09:46:39;;;;;;;22.58;7.05;;;37.50;49.80;;;;;;7286472;19;20196;-80
2023/06/17 09:49:15;;;;;;;9.63;4.72;;;36.80;50.50;;;;;;7284570;19;20189;-81
2023/06/17 09:51:42;;;;;;;10.88;5.10;;;36.60;50.80;;;;;;7285841;19;20188;-80
2023/06/17 09:54:09;;;;;;;10.93;5.03;;;36.70;51.40;;;;;;7284862;19;20570;-81
2023/06/17 09:56:36;;;;;;;8.48;5.00;;;36.60;50.50;;;;;;7285949;19;20185;-81
2023/06/17 09:59:08;;;;;;;11.65;5.65;;;37.10;50.70;;;;;;7301106;19;20188;-80
2023/06/17 10:01:39;;;;;;;9.05;5.15;;;37.80;49.10;;;;;;7285182;19;20213;-80
2023/06/17 10:04:08;;;;;;;9.27;4.95;;;38.40;49.40;;;;;;7283937;19;20193;-81
2023/06/17 10:06:40;;;;;;;9.05;5.15;;;38.50;48.30;;;;;;7285498;19;20200;-80
2023/06/17 10:09:08;;;;;;;8.55;4.90;;;39.00;49.90;;;;;;7286056;19;20216;-80
2023/06/17 10:11:36;;;;;;;9.63;5.05;;;39.90;48.50;;;;;;7283585;19;20188;-81
2023/06/17 10:14:06;;;;;;;9.13;4.82;;;40.50;48.40;;;;;;7296819;19;20677;-81
2023/06/17 10:16:36;;;;;;;10.68;4.80;;;40.70;46.80;;;;;;7281425;19;20570;-83
2023/06/17 10:19:07;;;;;;;10.15;4.72;;;40.70;46.90;;;;;;7291107;19;20567;-81
2023/06/17 10:21:39;;;;;;;8.35;4.60;;;40.50;46.80;;;;;;7284807;19;20181;-81
2023/06/17 10:24:06;;;;;;;7.88;4.68;;;40.50;47.10;;;;;;7283335;19;20181;-82
2023/06/17 10:26:32;;;;;;;8.35;4.68;;;41.60;46.30;;;;;;7295923;19;20184;-80
2023/06/17 10:29:01;;;;;;;8.73;4.72;;;42.30;45.80;;;;;;7307949;19;20181;-82
2023/06/17 10:31:29;;;;;;;9.50;4.63;;;42.50;45.40;;;;;;7287366;19;20184;-82
2023/06/17 10:33:57;;;;;;;10.18;4.90;;;42.00;44.00;;;;;;7288857;19;20193;-82
2023/06/17 10:36:27;;;;;;;9.25;4.88;;;41.80;43.20;;;;;;7285828;19;20802;-81
2023/06/17 10:39:04;;;;;;;8.32;5.00;;;42.30;44.60;;;;;;7285357;19;20189;-83
2023/06/17 10:41:38;;;;;;;10.07;4.75;;;42.60;44.00;;;;;;7279745;19;20601;-82
2023/06/17 10:44:35;;;;;;;8.38;5.05;;;43.30;45.60;;;;;;7264772;19;20198;-83
2023/06/17 10:47:02;;;;;;;10.77;5.15;;;43.00;43.00;;;;;;7280301;19;20682;-80
2023/06/17 10:49:41;;;;;;;9.35;5.05;;;42.40;43.80;;;;;;7308733;19;20210;-80
2023/06/17 10:52:14;;;;;;;9.65;5.10;;;41.20;44.70;;;;;;7277303;19;20195;-80
2023/06/17 10:54:51;;;;;;;10.63;5.00;;;40.50;44.10;;;;;;7281509;19;20228;-82
2023/06/17 10:57:35;;;;;;;8.73;5.07;;;40.30;45.00;;;;;;7280963;19;20188;-81
2023/06/17 11:00:10;;;;;;;10.13;4.90;;;39.90;45.70;;;;;;7284645;19;20192;-81
2023/06/17 11:02:37;;;;;;;9.82;4.55;;;38.80;45.00;;;;;;7284389;19;20346;-81
2023/06/17 11:05:08;;;;;;;8.60;5.10;;;38.30;46.50;;;;;;7284593;19;20189;-80
2023/06/17 11:07:37;;;;;;;7.72;4.80;;;37.20;46.40;;;;;;7273799;19;20180;-80
2023/06/17 11:10:08;;;;;;;8.35;4.85;;;36.60;48.10;;;;;;7305729;19;20826;-81
2023/06/17 11:12:34;;;;;;;8.95;5.13;;;36.40;47.70;;;;;;7285679;19;20189;-82
2023/06/17 11:15:03;;;;;;;8.52;4.35;;;36.30;48.10;;;;;;7285299;19;20188;-81
2023/06/17 11:17:29;;;;;;;7.97;3.90;;;36.80;49.40;;;;;;7285714;19;20201;-82
2023/06/17 11:19:55;;;;;;;6.88;4.10;;;37.00;45.30;;;;;;7285553;19;20652;-81
2023/06/17 11:22:22;;;;;;;9.90;4.35;;;36.60;45.30;;;;;;7284374;19;20918;-80
2023/06/17 11:24:48;;;;;;;6.93;4.20;;;36.20;45.40;;;;;;7284625;19;20197;-82
2023/06/17 11:27:14;;;;;;;5.88;4.07;;;35.80;46.00;;;;;;7279992;19;20205;-80
2023/06/17 11:29:41;;;;;;;7.85;3.97;;;35.60;46.30;;;;;;7281619;19;20197;-80
2023/06/17 11:32:08;;;;;;;6.18;4.10;;;35.00;46.50;;;;;;7297519;19;20922;-80
2023/06/17 11:34:35;;;;;;;7.32;4.18;;;34.80;47.90;;;;;;7305685;19;20195;-81
2023/06/17 11:37:06;;;;;;;7.68;4.28;;;35.90;47.20;;;;;;7282424;19;20182;-82
2023/06/17 11:39:32;;;;;;;8.02;3.95;;;36.50;46.20;;;;;;7281890;19;20199;-80
2023/06/17 11:42:02;;;;;;;6.35;4.07;;;36.40;45.40;;;;;;7282244;19;20186;-80
2023/06/17 11:44:32;;;;;;;9.05;3.80;;;35.80;45.40;;;;;;7284002;19;20186;-81
2023/06/17 11:47:03;;;;;;;7.50;4.20;;;35.50;46.50;;;;;;7282593;19;20199;-80
2023/06/17 11:49:29;;;;;;;7.38;3.58;;;35.40;45.90;;;;;;7281856;19;20225;-81
2023/06/17 11:52:09;;;;;;;5.80;3.78;;;36.10;47.50;;;;;;7280861;19;20189;-82
2023/06/17 11:54:45;;;;;;;7.15;3.95;;;37.10;46.40;;;;;;7281553;19;20188;-80
2023/06/17 11:57:16;;;;;;;5.78;3.88;;;37.60;46.30;;;;;;7255872;19;20288;-81
2023/06/17 11:59:43;;;;;;;6.93;4.43;;;38.10;44.40;;;;;;7278574;19;20549;-81
2023/06/17 12:02:10;;;;;;;11.48;4.28;;;37.40;44.00;;;;;;7277789;19;20200;-81
2023/06/17 12:04:36;;;;;;;6.85;4.05;;;36.80;44.80;;;;;;7300518;19;20188;-81
2023/06/17 12:07:06;;;;;;;7.55;4.07;;;36.40;45.20;;;;;;7283188;19;21009;-80
2023/06/17 12:09:48;;;;;;;6.78;4.20;;;36.70;47.10;;;;;;7282662;19;20276;-81
2023/06/17 12:12:32;;;;;;;6.03;3.78;;;36.70;45.90;;;;;;7178476;19;2005125;-80
2023/06/17 12:15:09;;;;;;;7.80;3.50;;;36.80;45.60;;;;;;7281820;19;20193;-81
2023/06/17 12:17:43;;;;;;;10.82;4.00;;;36.90;48.10;;;;;;7283336;19;20192;-81
2023/06/17 12:20:17;;;;;;;6.03;4.25;;;37.10;45.30;;;;;;7260586;19;20188;-81
2023/06/17 12:22:48;;;;;;;6.63;4.20;;;36.70;45.00;;;;;;7280443;19;20188;-82
2023/06/17 12:25:14;;;;;;;6.40;4.47;;;36.20;46.40;;;;;;7282405;19;20653;-81
2023/06/17 12:27:43;;;;;;;6.95;4.20;;;36.00;47.30;;;;;;7281810;19;20185;-80
2023/06/17 12:30:10;;;;;;;7.60;4.15;;;35.80;46.00;;;;;;7280348;19;20212;-81
2023/06/17 12:32:37;;;;;;;8.35;3.78;;;35.80;46.40;;;;;;7303894;19;20231;-80
2023/06/17 12:35:04;;;;;;;8.88;4.25;;;35.60;46.60;;;;;;7282238;19;20196;-80
2023/06/17 12:37:33;;;;;;;7.68;4.10;;;35.60;47.40;;;;;;7282743;19;20197;-80
2023/06/17 12:40:03;;;;;;;6.47;4.10;;;35.80;48.00;;;;;;7283835;19;20291;-80
2023/06/17 12:42:28;;;;;;;7.93;4.22;;;36.00;46.50;;;;;;7281650;19;20186;-80
2023/06/17 12:44:55;;;;;;;7.03;4.10;;;35.50;46.80;;;;;;7282622;19;20209;-81